sensor_id;sensor_type;location;lat;lon;timestamp;P1;durP1;ratioP1;P2;durP2;ratioP2
18166;SDS011;9208;42.688;23.404;2023-07-31T00:01:00;3.50;;;3.20;;
18166;SDS011;9208;42.688;23.404;2023-07-31T00:03:25;3.20;;;2.90;;
18166;SDS011;9208;42.688;23.404;2023-07-31T00:05:51;3.00;;;2.80;;
18166;SDS011;9208;42.688;23.404;2023-07-31T00:08:16;3.10;;;2.90;;
18166;SDS011;9208;42.688;23.404;2023-07-31T00:10:41;3.23;;;3.03;;
18166;SDS011;9208;42.688;23.404;2023-07-31T00:13:07;3.03;;;2.80;;
18166;SDS011;9208;42.688;23.404;2023-07-31T00:15:32;3.40;;;3.10;;
18166;SDS011;9208;42.688;23.404;2023-07-31T00:17:57;2.87;;;2.67;;
18166;SDS011;9208;42.688;23.404;2023-07-31T00:20:22;2.80;;;2.60;;
18166;SDS011;9208;42.688;23.404;2023-07-31T00:22:48;2.80;;;2.60;;
18166;SDS011;9208;42.688;23.404;2023-07-31T00:25:13;3.10;;;2.90;;
18166;SDS011;9208;42.688;23.404;2023-07-31T00:27:38;3.10;;;2.83;;
18166;SDS011;9208;42.688;23.404;2023-07-31T00:30:04;3.00;;;2.80;;
18166;SDS011;9208;42.688;23.404;2023-07-31T00:32:29;2.97;;;2.77;;
18166;SDS011;9208;42.688;23.404;2023-07-31T00:34:55;3.20;;;3.00;;
18166;SDS011;9208;42.688;23.404;2023-07-31T00:37:20;3.10;;;2.90;;
18166;SDS011;9208;42.688;23.404;2023-07-31T00:39:49;3.00;;;2.70;;
18166;SDS011;9208;42.688;23.404;2023-07-31T00:42:14;5.13;;;3.40;;
18166;SDS011;9208;42.688;23.404;2023-07-31T00:44:39;3.83;;;3.20;;
18166;SDS011;9208;42.688;23.404;2023-07-31T00:47:04;3.40;;;3.20;;
18166;SDS011;9208;42.688;23.404;2023-07-31T00:49:30;3.27;;;3.00;;
18166;SDS011;9208;42.688;23.404;2023-07-31T00:51:55;3.30;;;3.10;;
18166;SDS011;9208;42.688;23.404;2023-07-31T00:54:25;3.07;;;2.87;;
18166;SDS011;9208;42.688;23.404;2023-07-31T00:56:50;3.43;;;3.23;;
18166;SDS011;9208;42.688;23.404;2023-07-31T00:59:17;3.20;;;3.00;;
18166;SDS011;9208;42.688;23.404;2023-07-31T01:01:43;3.17;;;2.97;;
18166;SDS011;9208;42.688;23.404;2023-07-31T01:04:09;3.77;;;3.47;;
18166;SDS011;9208;42.688;23.404;2023-07-31T01:09:11;3.90;;;3.60;;
18166;SDS011;9208;42.688;23.404;2023-07-31T01:11:48;3.87;;;3.57;;
18166;SDS011;9208;42.688;23.404;2023-07-31T01:14:17;4.03;;;3.73;;
18166;SDS011;9208;42.688;23.404;2023-07-31T01:16:42;4.40;;;4.00;;
18166;SDS011;9208;42.688;23.404;2023-07-31T01:19:07;4.43;;;4.13;;
18166;SDS011;9208;42.688;23.404;2023-07-31T01:26:51;6.47;;;5.97;;
18166;SDS011;9208;42.688;23.404;2023-07-31T01:29:20;6.70;;;6.20;;
18166;SDS011;9208;42.688;23.404;2023-07-31T01:31:48;8.43;;;7.73;;
18166;SDS011;9208;42.688;23.404;2023-07-31T01:34:15;8.47;;;7.70;;
18166;SDS011;9208;42.688;23.404;2023-07-31T01:36:42;8.90;;;8.20;;
18166;SDS011;9208;42.688;23.404;2023-07-31T01:39:07;9.30;;;8.40;;
18166;SDS011;9208;42.688;23.404;2023-07-31T01:41:33;9.87;;;8.90;;
18166;SDS011;9208;42.688;23.404;2023-07-31T01:43:58;10.40;;;9.50;;
18166;SDS011;9208;42.688;23.404;2023-07-31T01:46:23;10.00;;;9.20;;
18166;SDS011;9208;42.688;23.404;2023-07-31T01:48:49;10.63;;;9.77;;
18166;SDS011;9208;42.688;23.404;2023-07-31T01:51:14;10.80;;;9.90;;
18166;SDS011;9208;42.688;23.404;2023-07-31T01:53:39;11.83;;;10.83;;
18166;SDS011;9208;42.688;23.404;2023-07-31T01:56:04;12.20;;;11.10;;
18166;SDS011;9208;42.688;23.404;2023-07-31T01:58:30;12.37;;;11.27;;
18166;SDS011;9208;42.688;23.404;2023-07-31T02:00:55;12.73;;;11.73;;
18166;SDS011;9208;42.688;23.404;2023-07-31T02:03:20;12.60;;;11.50;;
18166;SDS011;9208;42.688;23.404;2023-07-31T02:05:46;13.57;;;12.37;;
18166;SDS011;9208;42.688;23.404;2023-07-31T02:08:11;13.10;;;12.10;;
18166;SDS011;9208;42.688;23.404;2023-07-31T02:10:37;13.50;;;12.40;;
18166;SDS011;9208;42.688;23.404;2023-07-31T02:13:02;13.60;;;12.27;;
18166;SDS011;9208;42.688;23.404;2023-07-31T02:15:29;14.17;;;12.87;;
18166;SDS011;9208;42.688;23.404;2023-07-31T02:17:54;14.63;;;13.37;;
18166;SDS011;9208;42.688;23.404;2023-07-31T02:20:20;14.70;;;13.40;;
18166;SDS011;9208;42.688;23.404;2023-07-31T02:22:45;14.77;;;13.43;;
18166;SDS011;9208;42.688;23.404;2023-07-31T02:25:10;14.17;;;12.97;;
18166;SDS011;9208;42.688;23.404;2023-07-31T02:27:35;14.93;;;13.53;;
18166;SDS011;9208;42.688;23.404;2023-07-31T02:30:01;15.10;;;13.70;;
18166;SDS011;9208;42.688;23.404;2023-07-31T02:32:26;14.93;;;13.53;;
18166;SDS011;9208;42.688;23.404;2023-07-31T02:34:51;15.10;;;13.80;;
18166;SDS011;9208;42.688;23.404;2023-07-31T02:37:16;15.80;;;14.17;;
18166;SDS011;9208;42.688;23.404;2023-07-31T02:39:42;15.30;;;13.90;;
18166;SDS011;9208;42.688;23.404;2023-07-31T02:42:09;15.73;;;14.43;;
18166;SDS011;9208;42.688;23.404;2023-07-31T02:44:34;16.57;;;14.80;;
18166;SDS011;9208;42.688;23.404;2023-07-31T02:46:59;15.80;;;14.37;;
18166;SDS011;9208;42.688;23.404;2023-07-31T02:49:25;16.30;;;14.90;;
18166;SDS011;9208;42.688;23.404;2023-07-31T02:51:50;16.17;;;14.60;;
18166;SDS011;9208;42.688;23.404;2023-07-31T02:54:15;16.27;;;14.87;;
18166;SDS011;9208;42.688;23.404;2023-07-31T02:56:40;15.77;;;14.40;;
18166;SDS011;9208;42.688;23.404;2023-07-31T02:59:06;16.87;;;15.37;;
18166;SDS011;9208;42.688;23.404;2023-07-31T03:01:31;17.33;;;15.93;;
18166;SDS011;9208;42.688;23.404;2023-07-31T03:03:56;16.97;;;15.47;;
18166;SDS011;9208;42.688;23.404;2023-07-31T03:06:22;16.43;;;15.03;;
18166;SDS011;9208;42.688;23.404;2023-07-31T03:08:47;16.37;;;14.87;;
18166;SDS011;9208;42.688;23.404;2023-07-31T03:11:12;16.87;;;15.40;;
18166;SDS011;9208;42.688;23.404;2023-07-31T03:13:37;17.57;;;15.97;;
18166;SDS011;9208;42.688;23.404;2023-07-31T03:16:03;17.13;;;15.70;;
18166;SDS011;9208;42.688;23.404;2023-07-31T03:18:28;17.40;;;15.90;;
18166;SDS011;9208;42.688;23.404;2023-07-31T03:20:53;17.83;;;16.13;;
18166;SDS011;9208;42.688;23.404;2023-07-31T03:23:19;17.10;;;15.57;;
18166;SDS011;9208;42.688;23.404;2023-07-31T03:26:00;17.20;;;15.70;;
18166;SDS011;9208;42.688;23.404;2023-07-31T03:28:26;17.80;;;16.20;;
18166;SDS011;9208;42.688;23.404;2023-07-31T03:30:51;18.20;;;16.60;;
18166;SDS011;9208;42.688;23.404;2023-07-31T03:33:17;17.27;;;15.70;;
18166;SDS011;9208;42.688;23.404;2023-07-31T03:35:42;17.43;;;16.03;;
18166;SDS011;9208;42.688;23.404;2023-07-31T03:38:07;17.53;;;15.93;;
18166;SDS011;9208;42.688;23.404;2023-07-31T03:40:33;18.87;;;17.17;;
18166;SDS011;9208;42.688;23.404;2023-07-31T03:42:58;19.37;;;17.67;;
18166;SDS011;9208;42.688;23.404;2023-07-31T03:45:23;18.90;;;17.07;;
18166;SDS011;9208;42.688;23.404;2023-07-31T03:47:49;17.40;;;15.90;;
18166;SDS011;9208;42.688;23.404;2023-07-31T03:50:14;17.70;;;16.10;;
18166;SDS011;9208;42.688;23.404;2023-07-31T03:52:40;17.00;;;15.47;;
18166;SDS011;9208;42.688;23.404;2023-07-31T03:55:06;17.57;;;16.07;;
18166;SDS011;9208;42.688;23.404;2023-07-31T03:57:31;18.73;;;17.03;;
18166;SDS011;9208;42.688;23.404;2023-07-31T03:59:57;19.77;;;18.03;;
18166;SDS011;9208;42.688;23.404;2023-07-31T04:02:23;18.20;;;16.60;;
18166;SDS011;9208;42.688;23.404;2023-07-31T04:04:48;19.03;;;17.33;;
18166;SDS011;9208;42.688;23.404;2023-07-31T04:07:13;19.03;;;17.23;;
18166;SDS011;9208;42.688;23.404;2023-07-31T04:09:38;18.97;;;17.17;;
18166;SDS011;9208;42.688;23.404;2023-07-31T04:12:04;19.87;;;17.90;;
18166;SDS011;9208;42.688;23.404;2023-07-31T04:14:29;19.03;;;17.40;;
18166;SDS011;9208;42.688;23.404;2023-07-31T04:16:54;19.43;;;17.43;;
18166;SDS011;9208;42.688;23.404;2023-07-31T04:19:20;19.40;;;17.50;;
18166;SDS011;9208;42.688;23.404;2023-07-31T04:21:45;18.60;;;16.70;;
18166;SDS011;9208;42.688;23.404;2023-07-31T04:24:10;19.33;;;17.43;;
18166;SDS011;9208;42.688;23.404;2023-07-31T04:26:35;19.83;;;18.00;;
18166;SDS011;9208;42.688;23.404;2023-07-31T04:29:01;19.90;;;18.00;;
18166;SDS011;9208;42.688;23.404;2023-07-31T04:31:26;20.90;;;18.97;;
18166;SDS011;9208;42.688;23.404;2023-07-31T04:33:51;20.93;;;18.93;;
18166;SDS011;9208;42.688;23.404;2023-07-31T04:36:17;20.57;;;18.57;;
18166;SDS011;9208;42.688;23.404;2023-07-31T04:38:43;20.00;;;18.00;;
18166;SDS011;9208;42.688;23.404;2023-07-31T04:41:08;19.50;;;17.60;;
18166;SDS011;9208;42.688;23.404;2023-07-31T04:43:33;20.50;;;18.40;;
18166;SDS011;9208;42.688;23.404;2023-07-31T04:45:59;19.80;;;17.90;;
18166;SDS011;9208;42.688;23.404;2023-07-31T04:48:24;20.10;;;18.20;;
18166;SDS011;9208;42.688;23.404;2023-07-31T04:50:49;19.47;;;17.57;;
18166;SDS011;9208;42.688;23.404;2023-07-31T04:53:15;18.87;;;17.17;;
18166;SDS011;9208;42.688;23.404;2023-07-31T04:55:40;18.80;;;17.00;;
18166;SDS011;9208;42.688;23.404;2023-07-31T04:58:05;18.50;;;16.90;;
18166;SDS011;9208;42.688;23.404;2023-07-31T05:00:30;19.53;;;17.53;;
18166;SDS011;9208;42.688;23.404;2023-07-31T05:02:56;20.20;;;18.27;;
18166;SDS011;9208;42.688;23.404;2023-07-31T05:05:21;19.20;;;17.30;;
18166;SDS011;9208;42.688;23.404;2023-07-31T05:07:47;18.33;;;16.53;;
18166;SDS011;9208;42.688;23.404;2023-07-31T05:10:12;18.47;;;16.77;;
18166;SDS011;9208;42.688;23.404;2023-07-31T05:12:37;18.67;;;16.87;;
18166;SDS011;9208;42.688;23.404;2023-07-31T05:15:03;18.13;;;16.53;;
18166;SDS011;9208;42.688;23.404;2023-07-31T05:17:28;17.47;;;15.87;;
18166;SDS011;9208;42.688;23.404;2023-07-31T05:19:54;17.97;;;16.37;;
18166;SDS011;9208;42.688;23.404;2023-07-31T05:22:19;17.70;;;16.00;;
18166;SDS011;9208;42.688;23.404;2023-07-31T05:24:44;16.63;;;15.13;;
18166;SDS011;9208;42.688;23.404;2023-07-31T05:27:10;17.47;;;15.90;;
18166;SDS011;9208;42.688;23.404;2023-07-31T05:29:35;16.20;;;14.60;;
18166;SDS011;9208;42.688;23.404;2023-07-31T05:32:01;16.30;;;14.90;;
18166;SDS011;9208;42.688;23.404;2023-07-31T05:34:26;15.43;;;14.10;;
18166;SDS011;9208;42.688;23.404;2023-07-31T05:36:51;19.17;;;14.70;;
18166;SDS011;9208;42.688;23.404;2023-07-31T05:39:17;14.97;;;13.57;;
18166;SDS011;9208;42.688;23.404;2023-07-31T05:41:44;15.77;;;13.17;;
18166;SDS011;9208;42.688;23.404;2023-07-31T05:44:10;13.30;;;12.20;;
18166;SDS011;9208;42.688;23.404;2023-07-31T05:46:35;13.10;;;12.00;;
18166;SDS011;9208;42.688;23.404;2023-07-31T05:49:00;13.60;;;12.40;;
18166;SDS011;9208;42.688;23.404;2023-07-31T05:51:26;14.90;;;13.60;;
18166;SDS011;9208;42.688;23.404;2023-07-31T05:53:51;13.27;;;12.07;;
18166;SDS011;9208;42.688;23.404;2023-07-31T05:56:16;12.20;;;11.00;;
18166;SDS011;9208;42.688;23.404;2023-07-31T05:58:41;12.83;;;11.73;;
18166;SDS011;9208;42.688;23.404;2023-07-31T06:01:07;12.27;;;11.17;;
18166;SDS011;9208;42.688;23.404;2023-07-31T06:03:32;11.17;;;10.30;;
18166;SDS011;9208;42.688;23.404;2023-07-31T06:05:57;10.53;;;9.63;;
18166;SDS011;9208;42.688;23.404;2023-07-31T06:08:22;9.87;;;9.10;;
18166;SDS011;9208;42.688;23.404;2023-07-31T06:10:48;9.77;;;8.93;;
18166;SDS011;9208;42.688;23.404;2023-07-31T06:13:13;9.77;;;8.97;;
18166;SDS011;9208;42.688;23.404;2023-07-31T06:15:38;10.20;;;9.30;;
18166;SDS011;9208;42.688;23.404;2023-07-31T06:18:03;9.33;;;8.57;;
18166;SDS011;9208;42.688;23.404;2023-07-31T06:20:32;9.03;;;8.23;;
18166;SDS011;9208;42.688;23.404;2023-07-31T06:22:57;8.50;;;7.70;;
18166;SDS011;9208;42.688;23.404;2023-07-31T06:25:23;7.73;;;6.90;;
18166;SDS011;9208;42.688;23.404;2023-07-31T06:27:48;7.70;;;6.80;;
18166;SDS011;9208;42.688;23.404;2023-07-31T06:30:13;7.00;;;6.43;;
18166;SDS011;9208;42.688;23.404;2023-07-31T06:32:39;7.67;;;6.97;;
18166;SDS011;9208;42.688;23.404;2023-07-31T06:35:05;6.43;;;5.93;;
18166;SDS011;9208;42.688;23.404;2023-07-31T06:37:31;6.47;;;5.87;;
18166;SDS011;9208;42.688;23.404;2023-07-31T06:39:56;6.50;;;5.93;;
18166;SDS011;9208;42.688;23.404;2023-07-31T06:42:21;6.90;;;6.37;;
18166;SDS011;9208;42.688;23.404;2023-07-31T06:44:51;6.20;;;5.80;;
18166;SDS011;9208;42.688;23.404;2023-07-31T06:47:16;6.47;;;5.87;;
18166;SDS011;9208;42.688;23.404;2023-07-31T06:49:41;6.20;;;5.70;;
18166;SDS011;9208;42.688;23.404;2023-07-31T06:52:06;6.50;;;6.00;;
18166;SDS011;9208;42.688;23.404;2023-07-31T06:54:32;6.23;;;5.40;;
18166;SDS011;9208;42.688;23.404;2023-07-31T06:56:57;6.30;;;5.67;;
18166;SDS011;9208;42.688;23.404;2023-07-31T06:59:23;6.37;;;5.70;;
18166;SDS011;9208;42.688;23.404;2023-07-31T07:01:48;5.77;;;5.10;;
18166;SDS011;9208;42.688;23.404;2023-07-31T07:04:13;6.33;;;4.90;;
18166;SDS011;9208;42.688;23.404;2023-07-31T07:06:39;4.90;;;4.40;;
18166;SDS011;9208;42.688;23.404;2023-07-31T07:09:04;6.47;;;4.50;;
18166;SDS011;9208;42.688;23.404;2023-07-31T07:11:30;7.30;;;4.57;;
18166;SDS011;9208;42.688;23.404;2023-07-31T07:13:56;5.27;;;4.77;;
18166;SDS011;9208;42.688;23.404;2023-07-31T07:16:21;5.30;;;4.77;;
18166;SDS011;9208;42.688;23.404;2023-07-31T07:18:47;7.73;;;4.70;;
18166;SDS011;9208;42.688;23.404;2023-07-31T07:21:12;7.97;;;4.97;;
18166;SDS011;9208;42.688;23.404;2023-07-31T07:23:41;5.13;;;4.63;;
18166;SDS011;9208;42.688;23.404;2023-07-31T07:26:06;4.47;;;4.03;;
18166;SDS011;9208;42.688;23.404;2023-07-31T07:28:31;5.37;;;4.87;;
18166;SDS011;9208;42.688;23.404;2023-07-31T07:30:56;4.33;;;4.03;;
18166;SDS011;9208;42.688;23.404;2023-07-31T07:33:22;4.80;;;4.40;;
18166;SDS011;9208;42.688;23.404;2023-07-31T07:35:48;5.33;;;4.83;;
18166;SDS011;9208;42.688;23.404;2023-07-31T07:38:13;4.90;;;4.40;;
18166;SDS011;9208;42.688;23.404;2023-07-31T07:40:39;4.40;;;4.10;;
18166;SDS011;9208;42.688;23.404;2023-07-31T07:43:05;4.23;;;3.87;;
18166;SDS011;9208;42.688;23.404;2023-07-31T07:45:30;6.00;;;4.73;;
18166;SDS011;9208;42.688;23.404;2023-07-31T07:47:55;4.50;;;4.10;;
18166;SDS011;9208;42.688;23.404;2023-07-31T07:50:20;4.47;;;4.17;;
18166;SDS011;9208;42.688;23.404;2023-07-31T07:52:46;4.60;;;4.20;;
18166;SDS011;9208;42.688;23.404;2023-07-31T07:55:11;3.90;;;3.60;;
18166;SDS011;9208;42.688;23.404;2023-07-31T07:57:36;4.43;;;4.03;;
18166;SDS011;9208;42.688;23.404;2023-07-31T08:00:02;4.47;;;3.80;;
18166;SDS011;9208;42.688;23.404;2023-07-31T08:02:27;5.23;;;4.77;;
18166;SDS011;9208;42.688;23.404;2023-07-31T08:04:52;4.93;;;4.43;;
18166;SDS011;9208;42.688;23.404;2023-07-31T08:07:18;4.00;;;3.63;;
18166;SDS011;9208;42.688;23.404;2023-07-31T08:09:43;3.90;;;3.60;;
18166;SDS011;9208;42.688;23.404;2023-07-31T08:12:09;3.47;;;3.23;;
18166;SDS011;9208;42.688;23.404;2023-07-31T08:14:36;3.77;;;3.47;;
18166;SDS011;9208;42.688;23.404;2023-07-31T08:17:02;4.87;;;3.50;;
18166;SDS011;9208;42.688;23.404;2023-07-31T08:19:27;4.50;;;4.10;;
18166;SDS011;9208;42.688;23.404;2023-07-31T08:21:52;4.27;;;3.63;;
18166;SDS011;9208;42.688;23.404;2023-07-31T08:24:18;3.57;;;3.27;;
18166;SDS011;9208;42.688;23.404;2023-07-31T08:26:43;6.03;;;3.60;;
18166;SDS011;9208;42.688;23.404;2023-07-31T08:29:08;5.93;;;3.13;;
18166;SDS011;9208;42.688;23.404;2023-07-31T08:31:34;3.40;;;3.10;;
18166;SDS011;9208;42.688;23.404;2023-07-31T08:33:59;3.47;;;3.17;;
18166;SDS011;9208;42.688;23.404;2023-07-31T08:36:25;4.63;;;3.40;;
18166;SDS011;9208;42.688;23.404;2023-07-31T08:38:50;3.27;;;2.97;;
18166;SDS011;9208;42.688;23.404;2023-07-31T08:41:16;3.43;;;3.13;;
18166;SDS011;9208;42.688;23.404;2023-07-31T08:43:45;3.60;;;3.30;;
18166;SDS011;9208;42.688;23.404;2023-07-31T08:46:10;4.07;;;3.77;;
18166;SDS011;9208;42.688;23.404;2023-07-31T08:48:37;5.20;;;4.80;;
18166;SDS011;9208;42.688;23.404;2023-07-31T08:51:03;3.90;;;3.60;;
18166;SDS011;9208;42.688;23.404;2023-07-31T08:53:28;4.10;;;3.70;;
18166;SDS011;9208;42.688;23.404;2023-07-31T08:55:54;3.90;;;3.50;;
18166;SDS011;9208;42.688;23.404;2023-07-31T08:58:19;3.97;;;3.60;;
18166;SDS011;9208;42.688;23.404;2023-07-31T09:00:46;3.83;;;3.50;;
18166;SDS011;9208;42.688;23.404;2023-07-31T09:05:37;3.47;;;3.17;;
18166;SDS011;9208;42.688;23.404;2023-07-31T09:08:05;3.40;;;3.20;;
18166;SDS011;9208;42.688;23.404;2023-07-31T09:10:30;4.33;;;3.93;;
18166;SDS011;9208;42.688;23.404;2023-07-31T09:12:56;3.90;;;3.60;;
18166;SDS011;9208;42.688;23.404;2023-07-31T09:15:23;3.33;;;3.13;;
18166;SDS011;9208;42.688;23.404;2023-07-31T09:17:49;4.07;;;3.73;;
18166;SDS011;9208;42.688;23.404;2023-07-31T09:20:23;5.47;;;2.90;;
18166;SDS011;9208;42.688;23.404;2023-07-31T09:22:48;3.63;;;3.07;;
18166;SDS011;9208;42.688;23.404;2023-07-31T09:25:20;3.40;;;3.10;;
18166;SDS011;9208;42.688;23.404;2023-07-31T09:30:11;3.57;;;2.97;;
18166;SDS011;9208;42.688;23.404;2023-07-31T09:32:37;3.20;;;2.90;;
18166;SDS011;9208;42.688;23.404;2023-07-31T09:35:12;4.80;;;3.10;;
18166;SDS011;9208;42.688;23.404;2023-07-31T09:37:37;3.20;;;2.83;;
18166;SDS011;9208;42.688;23.404;2023-07-31T09:40:02;3.27;;;2.70;;
18166;SDS011;9208;42.688;23.404;2023-07-31T09:42:31;3.13;;;2.93;;
18166;SDS011;9208;42.688;23.404;2023-07-31T09:45:06;3.50;;;3.20;;
18166;SDS011;9208;42.688;23.404;2023-07-31T09:47:32;3.03;;;2.83;;
18166;SDS011;9208;42.688;23.404;2023-07-31T09:49:57;3.20;;;2.90;;
18166;SDS011;9208;42.688;23.404;2023-07-31T09:52:22;3.27;;;2.93;;
18166;SDS011;9208;42.688;23.404;2023-07-31T09:54:53;3.77;;;3.37;;
18166;SDS011;9208;42.688;23.404;2023-07-31T09:57:18;3.20;;;2.90;;
18166;SDS011;9208;42.688;23.404;2023-07-31T09:59:47;4.30;;;3.07;;
18166;SDS011;9208;42.688;23.404;2023-07-31T10:02:14;3.30;;;2.80;;
18166;SDS011;9208;42.688;23.404;2023-07-31T10:04:40;3.77;;;2.77;;
18166;SDS011;9208;42.688;23.404;2023-07-31T10:07:07;3.63;;;3.33;;
18166;SDS011;9208;42.688;23.404;2023-07-31T10:09:33;4.57;;;3.10;;
18166;SDS011;9208;42.688;23.404;2023-07-31T10:12:00;3.03;;;2.83;;
18166;SDS011;9208;42.688;23.404;2023-07-31T10:14:28;4.93;;;2.87;;
18166;SDS011;9208;42.688;23.404;2023-07-31T10:16:54;3.00;;;2.50;;
18166;SDS011;9208;42.688;23.404;2023-07-31T10:19:21;3.97;;;3.57;;
18166;SDS011;9208;42.688;23.404;2023-07-31T10:21:46;3.13;;;2.93;;
18166;SDS011;9208;42.688;23.404;2023-07-31T10:24:13;2.83;;;2.10;;
18166;SDS011;9208;42.688;23.404;2023-07-31T10:26:40;2.40;;;2.30;;
18166;SDS011;9208;42.688;23.404;2023-07-31T10:29:06;2.23;;;2.13;;
18166;SDS011;9208;42.688;23.404;2023-07-31T10:31:31;2.20;;;2.10;;
18166;SDS011;9208;42.688;23.404;2023-07-31T10:33:57;3.33;;;2.60;;
18166;SDS011;9208;42.688;23.404;2023-07-31T10:36:24;4.73;;;2.50;;
18166;SDS011;9208;42.688;23.404;2023-07-31T10:38:49;2.13;;;1.97;;
18166;SDS011;9208;42.688;23.404;2023-07-31T10:41:15;2.60;;;2.40;;
18166;SDS011;9208;42.688;23.404;2023-07-31T10:43:41;2.63;;;2.43;;
18166;SDS011;9208;42.688;23.404;2023-07-31T10:46:07;2.87;;;2.57;;
18166;SDS011;9208;42.688;23.404;2023-07-31T10:48:33;2.40;;;1.90;;
18166;SDS011;9208;42.688;23.404;2023-07-31T10:50:59;4.10;;;2.17;;
18166;SDS011;9208;42.688;23.404;2023-07-31T10:53:25;2.30;;;2.10;;
18166;SDS011;9208;42.688;23.404;2023-07-31T10:55:50;5.27;;;2.93;;
18166;SDS011;9208;42.688;23.404;2023-07-31T10:58:20;6.10;;;2.90;;
18166;SDS011;9208;42.688;23.404;2023-07-31T11:00:46;5.10;;;2.67;;
18166;SDS011;9208;42.688;23.404;2023-07-31T11:03:24;2.40;;;2.20;;
18166;SDS011;9208;42.688;23.404;2023-07-31T11:08:19;2.43;;;2.30;;
18166;SDS011;9208;42.688;23.404;2023-07-31T11:10:46;2.27;;;2.13;;
18166;SDS011;9208;42.688;23.404;2023-07-31T11:13:12;6.23;;;2.50;;
18166;SDS011;9208;42.688;23.404;2023-07-31T11:15:37;2.87;;;2.27;;
18166;SDS011;9208;42.688;23.404;2023-07-31T11:18:06;2.47;;;2.30;;
18166;SDS011;9208;42.688;23.404;2023-07-31T11:20:33;2.60;;;2.40;;
18166;SDS011;9208;42.688;23.404;2023-07-31T11:23:00;2.50;;;2.13;;
18166;SDS011;9208;42.688;23.404;2023-07-31T11:25:25;1.93;;;1.83;;
18166;SDS011;9208;42.688;23.404;2023-07-31T11:27:51;3.73;;;3.03;;
18166;SDS011;9208;42.688;23.404;2023-07-31T11:30:19;5.00;;;2.40;;
18166;SDS011;9208;42.688;23.404;2023-07-31T11:32:44;5.60;;;2.47;;
18166;SDS011;9208;42.688;23.404;2023-07-31T11:35:12;3.87;;;3.07;;
18166;SDS011;9208;42.688;23.404;2023-07-31T11:37:38;2.97;;;2.77;;
18166;SDS011;9208;42.688;23.404;2023-07-31T11:40:04;3.97;;;2.40;;
18166;SDS011;9208;42.688;23.404;2023-07-31T11:42:30;3.00;;;1.90;;
18166;SDS011;9208;42.688;23.404;2023-07-31T11:44:55;2.00;;;1.90;;
18166;SDS011;9208;42.688;23.404;2023-07-31T11:47:20;2.27;;;2.07;;
18166;SDS011;9208;42.688;23.404;2023-07-31T11:49:46;3.33;;;2.43;;
18166;SDS011;9208;42.688;23.404;2023-07-31T11:52:11;2.53;;;2.03;;
18166;SDS011;9208;42.688;23.404;2023-07-31T11:54:37;2.77;;;2.57;;
18166;SDS011;9208;42.688;23.404;2023-07-31T11:57:02;3.67;;;3.20;;
18166;SDS011;9208;42.688;23.404;2023-07-31T11:59:28;6.43;;;3.57;;
18166;SDS011;9208;42.688;23.404;2023-07-31T12:01:54;3.37;;;3.07;;
18166;SDS011;9208;42.688;23.404;2023-07-31T12:04:20;4.07;;;2.33;;
18166;SDS011;9208;42.688;23.404;2023-07-31T12:06:46;2.47;;;2.27;;
18166;SDS011;9208;42.688;23.404;2023-07-31T12:09:12;2.40;;;2.20;;
18166;SDS011;9208;42.688;23.404;2023-07-31T12:11:45;3.00;;;2.33;;
18166;SDS011;9208;42.688;23.404;2023-07-31T12:14:21;2.83;;;2.57;;
18166;SDS011;9208;42.688;23.404;2023-07-31T12:16:47;2.70;;;2.50;;
18166;SDS011;9208;42.688;23.404;2023-07-31T12:19:12;3.20;;;2.10;;
18166;SDS011;9208;42.688;23.404;2023-07-31T12:21:38;2.83;;;2.50;;
18166;SDS011;9208;42.688;23.404;2023-07-31T12:24:03;2.67;;;2.47;;
18166;SDS011;9208;42.688;23.404;2023-07-31T12:26:33;2.60;;;2.40;;
18166;SDS011;9208;42.688;23.404;2023-07-31T12:28:59;3.00;;;2.80;;
18166;SDS011;9208;42.688;23.404;2023-07-31T12:31:25;3.43;;;3.10;;
18166;SDS011;9208;42.688;23.404;2023-07-31T12:33:52;4.30;;;4.00;;
18166;SDS011;9208;42.688;23.404;2023-07-31T12:36:21;4.53;;;4.13;;
18166;SDS011;9208;42.688;23.404;2023-07-31T12:38:51;4.97;;;4.27;;
18166;SDS011;9208;42.688;23.404;2023-07-31T12:41:18;4.83;;;4.53;;
18166;SDS011;9208;42.688;23.404;2023-07-31T12:43:46;4.87;;;4.43;;
18166;SDS011;9208;42.688;23.404;2023-07-31T12:46:11;6.13;;;4.93;;
18166;SDS011;9208;42.688;23.404;2023-07-31T12:48:38;7.13;;;4.83;;
18166;SDS011;9208;42.688;23.404;2023-07-31T12:51:03;5.33;;;4.93;;
18166;SDS011;9208;42.688;23.404;2023-07-31T12:53:29;5.17;;;4.67;;
18166;SDS011;9208;42.688;23.404;2023-07-31T12:55:55;5.50;;;5.10;;
18166;SDS011;9208;42.688;23.404;2023-07-31T12:58:20;5.00;;;4.63;;
18166;SDS011;9208;42.688;23.404;2023-07-31T13:00:46;5.60;;;5.20;;
18166;SDS011;9208;42.688;23.404;2023-07-31T13:03:11;5.27;;;4.77;;
18166;SDS011;9208;42.688;23.404;2023-07-31T13:05:36;5.70;;;5.27;;
18166;SDS011;9208;42.688;23.404;2023-07-31T13:08:02;6.13;;;5.63;;
18166;SDS011;9208;42.688;23.404;2023-07-31T13:10:27;6.70;;;5.53;;
18166;SDS011;9208;42.688;23.404;2023-07-31T13:12:53;7.00;;;5.37;;
18166;SDS011;9208;42.688;23.404;2023-07-31T13:15:18;5.13;;;4.70;;
18166;SDS011;9208;42.688;23.404;2023-07-31T13:17:45;5.47;;;5.07;;
18166;SDS011;9208;42.688;23.404;2023-07-31T13:20:10;5.53;;;5.03;;
18166;SDS011;9208;42.688;23.404;2023-07-31T13:22:39;5.17;;;4.77;;
18166;SDS011;9208;42.688;23.404;2023-07-31T13:25:04;5.20;;;4.80;;
18166;SDS011;9208;42.688;23.404;2023-07-31T13:27:30;4.97;;;4.57;;
18166;SDS011;9208;42.688;23.404;2023-07-31T13:29:55;4.80;;;4.40;;
18166;SDS011;9208;42.688;23.404;2023-07-31T13:32:20;4.30;;;4.00;;
18166;SDS011;9208;42.688;23.404;2023-07-31T13:34:46;5.00;;;4.60;;
18166;SDS011;9208;42.688;23.404;2023-07-31T13:37:12;5.30;;;4.87;;
18166;SDS011;9208;42.688;23.404;2023-07-31T13:39:38;4.57;;;4.03;;
18166;SDS011;9208;42.688;23.404;2023-07-31T13:42:06;5.40;;;5.00;;
18166;SDS011;9208;42.688;23.404;2023-07-31T13:44:35;5.97;;;4.77;;
18166;SDS011;9208;42.688;23.404;2023-07-31T13:47:01;4.70;;;4.30;;
18166;SDS011;9208;42.688;23.404;2023-07-31T13:49:27;5.00;;;4.53;;
18166;SDS011;9208;42.688;23.404;2023-07-31T13:51:52;4.50;;;4.20;;
18166;SDS011;9208;42.688;23.404;2023-07-31T13:54:17;5.23;;;4.40;;
18166;SDS011;9208;42.688;23.404;2023-07-31T13:56:43;5.63;;;4.27;;
18166;SDS011;9208;42.688;23.404;2023-07-31T13:59:09;4.10;;;3.90;;
18166;SDS011;9208;42.688;23.404;2023-07-31T14:01:35;4.20;;;3.80;;
18166;SDS011;9208;42.688;23.404;2023-07-31T14:04:00;3.83;;;3.60;;
18166;SDS011;9208;42.688;23.404;2023-07-31T14:06:25;3.87;;;3.57;;
18166;SDS011;9208;42.688;23.404;2023-07-31T14:08:50;4.20;;;3.90;;
18166;SDS011;9208;42.688;23.404;2023-07-31T14:11:16;4.27;;;3.97;;
18166;SDS011;9208;42.688;23.404;2023-07-31T14:13:41;5.53;;;4.00;;
18166;SDS011;9208;42.688;23.404;2023-07-31T14:16:06;4.83;;;4.37;;
18166;SDS011;9208;42.688;23.404;2023-07-31T14:18:32;4.30;;;4.00;;
18166;SDS011;9208;42.688;23.404;2023-07-31T14:20:57;5.03;;;4.63;;
18166;SDS011;9208;42.688;23.404;2023-07-31T14:23:22;4.63;;;4.33;;
18166;SDS011;9208;42.688;23.404;2023-07-31T14:25:48;4.30;;;3.90;;
18166;SDS011;9208;42.688;23.404;2023-07-31T14:28:16;4.13;;;3.83;;
18166;SDS011;9208;42.688;23.404;2023-07-31T14:30:42;3.97;;;3.73;;
18166;SDS011;9208;42.688;23.404;2023-07-31T14:33:07;4.67;;;4.27;;
18166;SDS011;9208;42.688;23.404;2023-07-31T14:35:34;4.23;;;3.87;;
18166;SDS011;9208;42.688;23.404;2023-07-31T14:38:02;3.87;;;3.57;;
18166;SDS011;9208;42.688;23.404;2023-07-31T14:40:27;4.63;;;4.33;;
18166;SDS011;9208;42.688;23.404;2023-07-31T14:42:53;4.03;;;3.73;;
18166;SDS011;9208;42.688;23.404;2023-07-31T14:45:18;4.47;;;3.90;;
18166;SDS011;9208;42.688;23.404;2023-07-31T14:47:43;3.60;;;3.40;;